sensor_id;sensor_type;location;lat;lon;timestamp;P1;durP1;ratioP1;P2;durP2;ratioP2
5125;SDS011;63008;53.112;8.896;2024-01-27T00:01:55;18.57;;;3.07;;
5125;SDS011;63008;53.112;8.896;2024-01-27T00:03:56;20.67;;;3.30;;
5125;SDS011;63008;53.112;8.896;2024-01-27T00:05:57;29.43;;;3.53;;
5125;SDS011;63008;53.112;8.896;2024-01-27T00:07:58;30.43;;;4.43;;
5125;SDS011;63008;53.112;8.896;2024-01-27T00:09:59;17.00;;;3.07;;
5125;SDS011;63008;53.112;8.896;2024-01-27T00:12:00;18.07;;;3.93;;
5125;SDS011;63008;53.112;8.896;2024-01-27T00:14:01;23.23;;;3.97;;
5125;SDS011;63008;53.112;8.896;2024-01-27T00:16:03;20.93;;;3.27;;
5125;SDS011;63008;53.112;8.896;2024-01-27T00:18:04;26.13;;;4.03;;
5125;SDS011;63008;53.112;8.896;2024-01-27T00:20:06;26.50;;;3.70;;
5125;SDS011;63008;53.112;8.896;2024-01-27T00:22:07;21.13;;;4.20;;
5125;SDS011;63008;53.112;8.896;2024-01-27T00:24:08;24.53;;;3.30;;
5125;SDS011;63008;53.112;8.896;2024-01-27T00:26:09;20.20;;;3.40;;
5125;SDS011;63008;53.112;8.896;2024-01-27T00:28:11;21.87;;;4.43;;
5125;SDS011;63008;53.112;8.896;2024-01-27T00:30:12;15.20;;;3.53;;
5125;SDS011;63008;53.112;8.896;2024-01-27T00:32:13;33.07;;;4.23;;
5125;SDS011;63008;53.112;8.896;2024-01-27T00:34:14;24.30;;;3.97;;
5125;SDS011;63008;53.112;8.896;2024-01-27T00:36:15;29.73;;;4.63;;
5125;SDS011;63008;53.112;8.896;2024-01-27T00:38:16;34.77;;;4.00;;
5125;SDS011;63008;53.112;8.896;2024-01-27T00:40:17;24.83;;;4.00;;
5125;SDS011;63008;53.112;8.896;2024-01-27T00:42:18;31.80;;;4.43;;
5125;SDS011;63008;53.112;8.896;2024-01-27T00:44:24;29.13;;;4.87;;
5125;SDS011;63008;53.112;8.896;2024-01-27T00:46:25;19.80;;;2.27;;
5125;SDS011;63008;53.112;8.896;2024-01-27T00:48:26;27.10;;;4.27;;
5125;SDS011;63008;53.112;8.896;2024-01-27T00:50:28;25.57;;;3.10;;
5125;SDS011;63008;53.112;8.896;2024-01-27T00:52:29;20.80;;;4.07;;
5125;SDS011;63008;53.112;8.896;2024-01-27T00:54:30;30.07;;;4.90;;
5125;SDS011;63008;53.112;8.896;2024-01-27T00:56:31;16.07;;;3.57;;
5125;SDS011;63008;53.112;8.896;2024-01-27T00:58:32;27.77;;;3.47;;
5125;SDS011;63008;53.112;8.896;2024-01-27T01:00:35;23.27;;;3.30;;
5125;SDS011;63008;53.112;8.896;2024-01-27T01:02:38;24.87;;;3.87;;
5125;SDS011;63008;53.112;8.896;2024-01-27T01:04:39;25.70;;;4.50;;
5125;SDS011;63008;53.112;8.896;2024-01-27T01:06:40;30.23;;;3.50;;
5125;SDS011;63008;53.112;8.896;2024-01-27T01:08:41;22.00;;;4.20;;
5125;SDS011;63008;53.112;8.896;2024-01-27T01:10:42;20.80;;;3.50;;
5125;SDS011;63008;53.112;8.896;2024-01-27T01:12:43;16.03;;;2.90;;
5125;SDS011;63008;53.112;8.896;2024-01-27T01:14:44;26.87;;;3.47;;
5125;SDS011;63008;53.112;8.896;2024-01-27T01:16:45;19.70;;;3.50;;
5125;SDS011;63008;53.112;8.896;2024-01-27T01:18:46;28.60;;;3.90;;
5125;SDS011;63008;53.112;8.896;2024-01-27T01:20:47;27.60;;;3.83;;
5125;SDS011;63008;53.112;8.896;2024-01-27T01:22:48;28.83;;;3.37;;
5125;SDS011;63008;53.112;8.896;2024-01-27T01:24:49;25.83;;;3.63;;
5125;SDS011;63008;53.112;8.896;2024-01-27T01:26:50;33.70;;;4.43;;
5125;SDS011;63008;53.112;8.896;2024-01-27T01:28:51;17.20;;;3.67;;
5125;SDS011;63008;53.112;8.896;2024-01-27T01:30:52;19.40;;;3.40;;
5125;SDS011;63008;53.112;8.896;2024-01-27T01:32:53;37.33;;;5.13;;
5125;SDS011;63008;53.112;8.896;2024-01-27T01:34:54;23.83;;;3.30;;
5125;SDS011;63008;53.112;8.896;2024-01-27T01:36:55;16.33;;;3.60;;
5125;SDS011;63008;53.112;8.896;2024-01-27T01:38:57;33.57;;;5.90;;
5125;SDS011;63008;53.112;8.896;2024-01-27T01:40:58;30.70;;;3.63;;
5125;SDS011;63008;53.112;8.896;2024-01-27T01:42:59;22.20;;;3.40;;
5125;SDS011;63008;53.112;8.896;2024-01-27T01:45:00;20.40;;;3.60;;
5125;SDS011;63008;53.112;8.896;2024-01-27T01:47:01;34.13;;;5.07;;
5125;SDS011;63008;53.112;8.896;2024-01-27T01:49:04;26.77;;;4.23;;
5125;SDS011;63008;53.112;8.896;2024-01-27T01:51:05;18.07;;;3.63;;
5125;SDS011;63008;53.112;8.896;2024-01-27T01:53:06;25.43;;;4.63;;
5125;SDS011;63008;53.112;8.896;2024-01-27T01:55:08;22.87;;;4.47;;
5125;SDS011;63008;53.112;8.896;2024-01-27T01:57:09;31.87;;;4.67;;
5125;SDS011;63008;53.112;8.896;2024-01-27T01:59:10;20.40;;;4.50;;
5125;SDS011;63008;53.112;8.896;2024-01-27T02:01:11;20.17;;;3.60;;
5125;SDS011;63008;53.112;8.896;2024-01-27T02:03:12;26.30;;;3.50;;
5125;SDS011;63008;53.112;8.896;2024-01-27T02:05:14;23.97;;;3.97;;
5125;SDS011;63008;53.112;8.896;2024-01-27T02:07:15;29.50;;;3.70;;
5125;SDS011;63008;53.112;8.896;2024-01-27T02:09:16;30.43;;;4.90;;
5125;SDS011;63008;53.112;8.896;2024-01-27T02:11:17;23.23;;;4.80;;
5125;SDS011;63008;53.112;8.896;2024-01-27T02:13:22;27.63;;;4.20;;
5125;SDS011;63008;53.112;8.896;2024-01-27T02:15:23;16.80;;;3.70;;
5125;SDS011;63008;53.112;8.896;2024-01-27T02:17:24;34.37;;;3.37;;
5125;SDS011;63008;53.112;8.896;2024-01-27T02:19:25;29.30;;;3.73;;
5125;SDS011;63008;53.112;8.896;2024-01-27T02:21:26;26.23;;;5.33;;
5125;SDS011;63008;53.112;8.896;2024-01-27T02:23:27;41.40;;;6.50;;
5125;SDS011;63008;53.112;8.896;2024-01-27T02:25:28;26.17;;;4.40;;
5125;SDS011;63008;53.112;8.896;2024-01-27T02:27:29;23.10;;;4.07;;
5125;SDS011;63008;53.112;8.896;2024-01-27T02:29:30;21.87;;;4.30;;
5125;SDS011;63008;53.112;8.896;2024-01-27T02:31:31;26.83;;;3.90;;
5125;SDS011;63008;53.112;8.896;2024-01-27T02:33:32;32.50;;;4.83;;
5125;SDS011;63008;53.112;8.896;2024-01-27T02:35:33;24.93;;;3.60;;
5125;SDS011;63008;53.112;8.896;2024-01-27T02:37:34;30.73;;;4.50;;
5125;SDS011;63008;53.112;8.896;2024-01-27T02:39:35;23.20;;;3.80;;
5125;SDS011;63008;53.112;8.896;2024-01-27T02:41:36;18.33;;;3.23;;
5125;SDS011;63008;53.112;8.896;2024-01-27T02:43:39;33.53;;;4.70;;
5125;SDS011;63008;53.112;8.896;2024-01-27T02:45:40;22.30;;;3.00;;
5125;SDS011;63008;53.112;8.896;2024-01-27T02:47:41;30.63;;;3.93;;
5125;SDS011;63008;53.112;8.896;2024-01-27T02:49:42;27.00;;;3.70;;
5125;SDS011;63008;53.112;8.896;2024-01-27T02:51:43;22.80;;;4.27;;
5125;SDS011;63008;53.112;8.896;2024-01-27T02:53:44;23.93;;;4.40;;
5125;SDS011;63008;53.112;8.896;2024-01-27T02:55:45;20.43;;;3.70;;
5125;SDS011;63008;53.112;8.896;2024-01-27T02:57:46;25.20;;;3.10;;
5125;SDS011;63008;53.112;8.896;2024-01-27T02:59:47;23.20;;;4.13;;
5125;SDS011;63008;53.112;8.896;2024-01-27T03:01:49;28.40;;;3.90;;
5125;SDS011;63008;53.112;8.896;2024-01-27T03:03:50;29.87;;;3.60;;
5125;SDS011;63008;53.112;8.896;2024-01-27T03:05:51;34.57;;;3.90;;
5125;SDS011;63008;53.112;8.896;2024-01-27T03:07:52;21.20;;;4.00;;
5125;SDS011;63008;53.112;8.896;2024-01-27T03:09:53;18.13;;;3.97;;
5125;SDS011;63008;53.112;8.896;2024-01-27T03:11:54;37.47;;;4.50;;
5125;SDS011;63008;53.112;8.896;2024-01-27T03:13:55;24.03;;;3.50;;
5125;SDS011;63008;53.112;8.896;2024-01-27T03:15:56;25.30;;;4.10;;
5125;SDS011;63008;53.112;8.896;2024-01-27T03:17:57;25.07;;;3.90;;
5125;SDS011;63008;53.112;8.896;2024-01-27T03:19:58;21.47;;;4.03;;
5125;SDS011;63008;53.112;8.896;2024-01-27T03:21:59;15.90;;;2.50;;
5125;SDS011;63008;53.112;8.896;2024-01-27T03:24:00;26.00;;;4.30;;
5125;SDS011;63008;53.112;8.896;2024-01-27T03:26:02;17.63;;;3.33;;
5125;SDS011;63008;53.112;8.896;2024-01-27T03:28:03;23.53;;;3.90;;
5125;SDS011;63008;53.112;8.896;2024-01-27T03:30:04;30.30;;;3.40;;
5125;SDS011;63008;53.112;8.896;2024-01-27T03:32:08;24.90;;;3.53;;
5125;SDS011;63008;53.112;8.896;2024-01-27T03:34:09;25.00;;;3.33;;
5125;SDS011;63008;53.112;8.896;2024-01-27T03:36:10;24.97;;;3.90;;
5125;SDS011;63008;53.112;8.896;2024-01-27T03:38:12;22.07;;;3.47;;
5125;SDS011;63008;53.112;8.896;2024-01-27T03:40:13;20.77;;;3.53;;
5125;SDS011;63008;53.112;8.896;2024-01-27T03:42:14;18.33;;;2.87;;
5125;SDS011;63008;53.112;8.896;2024-01-27T03:44:15;31.00;;;3.33;;
5125;SDS011;63008;53.112;8.896;2024-01-27T03:46:16;24.17;;;3.63;;
5125;SDS011;63008;53.112;8.896;2024-01-27T03:48:17;23.53;;;4.47;;
5125;SDS011;63008;53.112;8.896;2024-01-27T03:50:18;16.87;;;3.23;;
5125;SDS011;63008;53.112;8.896;2024-01-27T03:52:19;19.13;;;3.67;;
5125;SDS011;63008;53.112;8.896;2024-01-27T03:54:20;21.10;;;4.17;;
5125;SDS011;63008;53.112;8.896;2024-01-27T03:56:21;15.10;;;3.67;;
5125;SDS011;63008;53.112;8.896;2024-01-27T03:58:22;26.23;;;4.27;;
5125;SDS011;63008;53.112;8.896;2024-01-27T04:00:23;27.77;;;5.13;;
5125;SDS011;63008;53.112;8.896;2024-01-27T04:02:24;21.23;;;3.83;;
5125;SDS011;63008;53.112;8.896;2024-01-27T04:04:25;22.33;;;3.80;;
5125;SDS011;63008;53.112;8.896;2024-01-27T04:06:26;26.50;;;3.87;;
5125;SDS011;63008;53.112;8.896;2024-01-27T04:08:28;20.90;;;4.40;;
5125;SDS011;63008;53.112;8.896;2024-01-27T04:10:30;31.53;;;4.40;;
5125;SDS011;63008;53.112;8.896;2024-01-27T04:12:31;22.80;;;5.17;;
5125;SDS011;63008;53.112;8.896;2024-01-27T04:14:32;26.07;;;4.03;;
5125;SDS011;63008;53.112;8.896;2024-01-27T04:16:33;19.13;;;3.70;;
5125;SDS011;63008;53.112;8.896;2024-01-27T04:18:34;33.30;;;4.03;;
5125;SDS011;63008;53.112;8.896;2024-01-27T04:20:35;19.83;;;3.87;;
5125;SDS011;63008;53.112;8.896;2024-01-27T04:22:36;29.30;;;4.27;;
5125;SDS011;63008;53.112;8.896;2024-01-27T04:24:37;28.03;;;3.60;;
5125;SDS011;63008;53.112;8.896;2024-01-27T04:26:38;21.33;;;3.47;;
5125;SDS011;63008;53.112;8.896;2024-01-27T04:28:39;27.10;;;3.60;;
5125;SDS011;63008;53.112;8.896;2024-01-27T04:30:40;26.07;;;3.43;;
5125;SDS011;63008;53.112;8.896;2024-01-27T04:32:41;24.20;;;2.90;;
5125;SDS011;63008;53.112;8.896;2024-01-27T04:34:42;21.70;;;3.37;;
5125;SDS011;63008;53.112;8.896;2024-01-27T04:36:43;22.80;;;4.10;;
5125;SDS011;63008;53.112;8.896;2024-01-27T04:38:44;16.20;;;3.03;;
5125;SDS011;63008;53.112;8.896;2024-01-27T04:40:45;15.17;;;3.23;;
5125;SDS011;63008;53.112;8.896;2024-01-27T04:42:46;25.20;;;3.53;;
5125;SDS011;63008;53.112;8.896;2024-01-27T04:44:47;22.20;;;3.43;;
5125;SDS011;63008;53.112;8.896;2024-01-27T04:46:48;25.93;;;3.47;;
5125;SDS011;63008;53.112;8.896;2024-01-27T04:48:49;22.40;;;3.70;;
5125;SDS011;63008;53.112;8.896;2024-01-27T04:50:50;14.90;;;4.00;;
5125;SDS011;63008;53.112;8.896;2024-01-27T04:52:51;13.97;;;2.77;;
5125;SDS011;63008;53.112;8.896;2024-01-27T04:54:52;15.73;;;3.37;;
5125;SDS011;63008;53.112;8.896;2024-01-27T04:56:53;23.87;;;4.30;;
5125;SDS011;63008;53.112;8.896;2024-01-27T04:58:54;26.50;;;4.00;;
5125;SDS011;63008;53.112;8.896;2024-01-27T05:00:55;25.37;;;3.50;;
5125;SDS011;63008;53.112;8.896;2024-01-27T05:02:57;27.30;;;3.57;;
5125;SDS011;63008;53.112;8.896;2024-01-27T05:05:01;16.30;;;3.40;;
5125;SDS011;63008;53.112;8.896;2024-01-27T05:07:03;20.20;;;3.50;;
5125;SDS011;63008;53.112;8.896;2024-01-27T05:09:04;22.10;;;3.87;;
5125;SDS011;63008;53.112;8.896;2024-01-27T05:11:09;13.60;;;2.90;;
5125;SDS011;63008;53.112;8.896;2024-01-27T05:13:10;20.93;;;2.87;;
5125;SDS011;63008;53.112;8.896;2024-01-27T05:15:11;28.87;;;3.80;;
5125;SDS011;63008;53.112;8.896;2024-01-27T05:17:12;15.50;;;3.03;;
5125;SDS011;63008;53.112;8.896;2024-01-27T05:19:13;24.57;;;4.30;;
5125;SDS011;63008;53.112;8.896;2024-01-27T05:21:15;17.70;;;3.30;;
5125;SDS011;63008;53.112;8.896;2024-01-27T05:23:16;33.40;;;4.63;;
5125;SDS011;63008;53.112;8.896;2024-01-27T05:25:17;27.60;;;3.40;;
5125;SDS011;63008;53.112;8.896;2024-01-27T05:27:18;21.03;;;3.90;;
5125;SDS011;63008;53.112;8.896;2024-01-27T05:29:19;22.23;;;4.10;;
5125;SDS011;63008;53.112;8.896;2024-01-27T05:31:20;16.33;;;3.10;;
5125;SDS011;63008;53.112;8.896;2024-01-27T05:33:21;16.63;;;3.00;;
5125;SDS011;63008;53.112;8.896;2024-01-27T05:35:22;25.57;;;3.17;;
5125;SDS011;63008;53.112;8.896;2024-01-27T05:37:23;17.27;;;3.37;;
5125;SDS011;63008;53.112;8.896;2024-01-27T05:39:24;20.77;;;3.40;;
5125;SDS011;63008;53.112;8.896;2024-01-27T05:41:26;22.60;;;2.90;;
5125;SDS011;63008;53.112;8.896;2024-01-27T05:43:29;17.07;;;3.27;;
5125;SDS011;63008;53.112;8.896;2024-01-27T05:45:30;15.10;;;2.73;;
5125;SDS011;63008;53.112;8.896;2024-01-27T05:47:31;25.10;;;3.77;;
5125;SDS011;63008;53.112;8.896;2024-01-27T05:49:32;22.90;;;3.60;;
5125;SDS011;63008;53.112;8.896;2024-01-27T05:51:33;23.50;;;4.53;;
5125;SDS011;63008;53.112;8.896;2024-01-27T05:53:34;13.17;;;2.90;;
5125;SDS011;63008;53.112;8.896;2024-01-27T05:55:35;15.50;;;2.73;;
5125;SDS011;63008;53.112;8.896;2024-01-27T05:57:36;24.40;;;4.03;;
5125;SDS011;63008;53.112;8.896;2024-01-27T05:59:37;27.90;;;4.53;;
5125;SDS011;63008;53.112;8.896;2024-01-27T06:01:38;13.73;;;3.00;;
5125;SDS011;63008;53.112;8.896;2024-01-27T06:03:41;16.30;;;2.43;;
5125;SDS011;63008;53.112;8.896;2024-01-27T06:05:43;19.53;;;3.70;;
5125;SDS011;63008;53.112;8.896;2024-01-27T06:07:44;18.20;;;3.10;;
5125;SDS011;63008;53.112;8.896;2024-01-27T06:09:46;11.53;;;2.83;;
5125;SDS011;63008;53.112;8.896;2024-01-27T06:11:47;31.50;;;4.33;;
5125;SDS011;63008;53.112;8.896;2024-01-27T06:13:48;26.80;;;4.10;;
5125;SDS011;63008;53.112;8.896;2024-01-27T06:15:50;28.17;;;3.37;;
5125;SDS011;63008;53.112;8.896;2024-01-27T06:17:51;17.00;;;3.07;;
5125;SDS011;63008;53.112;8.896;2024-01-27T06:19:52;23.20;;;3.57;;
5125;SDS011;63008;53.112;8.896;2024-01-27T06:21:53;28.93;;;3.70;;
5125;SDS011;63008;53.112;8.896;2024-01-27T06:23:54;15.23;;;3.37;;
5125;SDS011;63008;53.112;8.896;2024-01-27T06:25:55;15.70;;;3.53;;
5125;SDS011;63008;53.112;8.896;2024-01-27T06:27:56;21.23;;;3.93;;
5125;SDS011;63008;53.112;8.896;2024-01-27T06:29:57;28.63;;;4.17;;
5125;SDS011;63008;53.112;8.896;2024-01-27T06:31:58;18.47;;;3.10;;
5125;SDS011;63008;53.112;8.896;2024-01-27T06:33:59;14.83;;;3.47;;
5125;SDS011;63008;53.112;8.896;2024-01-27T06:36:00;21.03;;;3.90;;
5125;SDS011;63008;53.112;8.896;2024-01-27T06:38:01;22.83;;;3.23;;
5125;SDS011;63008;53.112;8.896;2024-01-27T06:40:02;16.60;;;3.53;;
5125;SDS011;63008;53.112;8.896;2024-01-27T06:42:04;16.60;;;3.37;;
5125;SDS011;63008;53.112;8.896;2024-01-27T06:44:05;24.37;;;3.13;;
5125;SDS011;63008;53.112;8.896;2024-01-27T06:46:06;20.47;;;4.53;;
5125;SDS011;63008;53.112;8.896;2024-01-27T06:48:07;16.73;;;3.47;;
5125;SDS011;63008;53.112;8.896;2024-01-27T06:50:08;21.90;;;3.90;;
5125;SDS011;63008;53.112;8.896;2024-01-27T06:52:09;15.13;;;2.90;;
5125;SDS011;63008;53.112;8.896;2024-01-27T06:54:10;15.57;;;3.50;;
5125;SDS011;63008;53.112;8.896;2024-01-27T06:56:11;20.97;;;3.50;;
5125;SDS011;63008;53.112;8.896;2024-01-27T06:58:12;27.03;;;4.77;;
5125;SDS011;63008;53.112;8.896;2024-01-27T07:00:13;14.60;;;3.30;;
5125;SDS011;63008;53.112;8.896;2024-01-27T07:02:14;21.13;;;3.50;;
5125;SDS011;63008;53.112;8.896;2024-01-27T07:04:15;16.70;;;3.90;;
5125;SDS011;63008;53.112;8.896;2024-01-27T07:06:17;21.60;;;4.33;;
5125;SDS011;63008;53.112;8.896;2024-01-27T07:08:18;17.23;;;4.23;;
5125;SDS011;63008;53.112;8.896;2024-01-27T07:10:19;35.33;;;4.70;;
5125;SDS011;63008;53.112;8.896;2024-01-27T07:12:21;22.10;;;4.20;;
5125;SDS011;63008;53.112;8.896;2024-01-27T07:14:21;20.50;;;4.60;;
5125;SDS011;63008;53.112;8.896;2024-01-27T07:16:22;16.07;;;4.40;;
5125;SDS011;63008;53.112;8.896;2024-01-27T07:18:30;28.97;;;4.17;;
5125;SDS011;63008;53.112;8.896;2024-01-27T07:20:31;18.53;;;3.90;;
5125;SDS011;63008;53.112;8.896;2024-01-27T07:22:32;31.27;;;4.57;;
5125;SDS011;63008;53.112;8.896;2024-01-27T07:24:34;16.53;;;3.40;;
5125;SDS011;63008;53.112;8.896;2024-01-27T07:26:35;18.27;;;3.87;;
5125;SDS011;63008;53.112;8.896;2024-01-27T07:28:36;22.30;;;3.40;;
5125;SDS011;63008;53.112;8.896;2024-01-27T07:30:38;18.13;;;4.00;;
5125;SDS011;63008;53.112;8.896;2024-01-27T07:32:39;22.83;;;4.53;;
5125;SDS011;63008;53.112;8.896;2024-01-27T07:34:41;29.93;;;4.40;;
5125;SDS011;63008;53.112;8.896;2024-01-27T07:36:43;27.40;;;3.47;;
5125;SDS011;63008;53.112;8.896;2024-01-27T07:38:44;10.27;;;3.90;;
5125;SDS011;63008;53.112;8.896;2024-01-27T07:40:46;13.93;;;3.40;;
5125;SDS011;63008;53.112;8.896;2024-01-27T07:42:47;21.27;;;3.13;;
5125;SDS011;63008;53.112;8.896;2024-01-27T07:44:48;12.77;;;3.37;;
5125;SDS011;63008;53.112;8.896;2024-01-27T07:46:50;19.33;;;3.90;;
5125;SDS011;63008;53.112;8.896;2024-01-27T07:48:51;19.50;;;3.43;;
5125;SDS011;63008;53.112;8.896;2024-01-27T07:50:52;20.70;;;3.57;;
5125;SDS011;63008;53.112;8.896;2024-01-27T07:52:53;18.73;;;3.80;;
5125;SDS011;63008;53.112;8.896;2024-01-27T07:54:55;12.60;;;3.70;;
5125;SDS011;63008;53.112;8.896;2024-01-27T07:56:56;20.00;;;3.83;;
5125;SDS011;63008;53.112;8.896;2024-01-27T07:58:57;24.40;;;4.00;;
5125;SDS011;63008;53.112;8.896;2024-01-27T08:00:58;11.53;;;4.33;;
5125;SDS011;63008;53.112;8.896;2024-01-27T08:03:00;17.03;;;4.20;;
5125;SDS011;63008;53.112;8.896;2024-01-27T08:05:02;16.93;;;3.60;;
5125;SDS011;63008;53.112;8.896;2024-01-27T08:07:04;9.73;;;2.70;;
5125;SDS011;63008;53.112;8.896;2024-01-27T08:09:10;13.37;;;3.90;;
5125;SDS011;63008;53.112;8.896;2024-01-27T08:11:11;20.67;;;3.97;;
5125;SDS011;63008;53.112;8.896;2024-01-27T08:13:12;34.37;;;4.27;;
5125;SDS011;63008;53.112;8.896;2024-01-27T08:15:13;23.10;;;3.87;;
5125;SDS011;63008;53.112;8.896;2024-01-27T08:17:14;21.90;;;3.13;;
5125;SDS011;63008;53.112;8.896;2024-01-27T08:19:15;18.90;;;3.23;;
5125;SDS011;63008;53.112;8.896;2024-01-27T08:21:20;18.07;;;3.37;;
5125;SDS011;63008;53.112;8.896;2024-01-27T08:23:21;18.73;;;3.50;;
5125;SDS011;63008;53.112;8.896;2024-01-27T08:25:22;23.23;;;4.10;;
5125;SDS011;63008;53.112;8.896;2024-01-27T08:27:23;15.90;;;3.50;;
5125;SDS011;63008;53.112;8.896;2024-01-27T08:29:24;16.80;;;3.37;;
5125;SDS011;63008;53.112;8.896;2024-01-27T08:31:25;28.53;;;4.47;;
5125;SDS011;63008;53.112;8.896;2024-01-27T08:33:26;17.30;;;3.73;;
5125;SDS011;63008;53.112;8.896;2024-01-27T08:35:27;16.70;;;3.20;;
5125;SDS011;63008;53.112;8.896;2024-01-27T08:37:28;24.77;;;3.50;;
5125;SDS011;63008;53.112;8.896;2024-01-27T08:39:30;18.20;;;3.47;;
5125;SDS011;63008;53.112;8.896;2024-01-27T08:41:31;17.40;;;3.73;;
5125;SDS011;63008;53.112;8.896;2024-01-27T08:43:32;19.00;;;3.50;;
5125;SDS011;63008;53.112;8.896;2024-01-27T08:45:33;16.03;;;3.93;;
5125;SDS011;63008;53.112;8.896;2024-01-27T08:47:34;25.50;;;4.43;;
5125;SDS011;63008;53.112;8.896;2024-01-27T08:49:35;16.87;;;3.77;;
5125;SDS011;63008;53.112;8.896;2024-01-27T08:51:36;22.73;;;4.10;;
5125;SDS011;63008;53.112;8.896;2024-01-27T08:53:37;22.83;;;3.90;;
5125;SDS011;63008;53.112;8.896;2024-01-27T08:55:38;15.53;;;4.63;;
5125;SDS011;63008;53.112;8.896;2024-01-27T08:57:39;24.77;;;4.47;;
5125;SDS011;63008;53.112;8.896;2024-01-27T08:59:40;23.80;;;5.00;;
5125;SDS011;63008;53.112;8.896;2024-01-27T09:01:41;19.63;;;3.40;;
5125;SDS011;63008;53.112;8.896;2024-01-27T09:03:42;12.77;;;3.67;;
5125;SDS011;63008;53.112;8.896;2024-01-27T09:05:43;15.80;;;3.30;;
5125;SDS011;63008;53.112;8.896;2024-01-27T09:07:45;19.60;;;4.17;;
5125;SDS011;63008;53.112;8.896;2024-01-27T09:09:47;20.20;;;3.60;;
5125;SDS011;63008;53.112;8.896;2024-01-27T09:11:48;19.30;;;3.83;;
5125;SDS011;63008;53.112;8.896;2024-01-27T09:13:50;17.43;;;3.60;;
5125;SDS011;63008;53.112;8.896;2024-01-27T09:15:52;18.60;;;4.10;;
5125;SDS011;63008;53.112;8.896;2024-01-27T09:17:53;15.27;;;3.63;;
5125;SDS011;63008;53.112;8.896;2024-01-27T09:19:54;16.20;;;4.30;;
5125;SDS011;63008;53.112;8.896;2024-01-27T09:21:55;12.67;;;3.73;;
5125;SDS011;63008;53.112;8.896;2024-01-27T09:23:56;20.43;;;4.03;;
5125;SDS011;63008;53.112;8.896;2024-01-27T09:25:57;21.73;;;4.57;;
5125;SDS011;63008;53.112;8.896;2024-01-27T09:27:59;17.60;;;3.97;;
5125;SDS011;63008;53.112;8.896;2024-01-27T09:30:03;19.87;;;3.37;;
5125;SDS011;63008;53.112;8.896;2024-01-27T09:32:05;15.40;;;4.23;;
5125;SDS011;63008;53.112;8.896;2024-01-27T09:34:06;29.17;;;4.43;;
5125;SDS011;63008;53.112;8.896;2024-01-27T09:36:07;15.00;;;3.53;;
5125;SDS011;63008;53.112;8.896;2024-01-27T09:38:08;17.20;;;4.33;;
5125;SDS011;63008;53.112;8.896;2024-01-27T09:40:12;15.83;;;3.53;;
5125;SDS011;63008;53.112;8.896;2024-01-27T09:42:13;21.87;;;4.27;;
5125;SDS011;63008;53.112;8.896;2024-01-27T09:44:17;23.50;;;4.53;;
5125;SDS011;63008;53.112;8.896;2024-01-27T09:46:20;17.20;;;4.30;;
5125;SDS011;63008;53.112;8.896;2024-01-27T09:48:21;22.27;;;3.80;;
5125;SDS011;63008;53.112;8.896;2024-01-27T09:50:22;15.83;;;4.37;;
5125;SDS011;63008;53.112;8.896;2024-01-27T09:52:23;22.17;;;4.80;;
5125;SDS011;63008;53.112;8.896;2024-01-27T09:54:24;20.83;;;5.40;;
5125;SDS011;63008;53.112;8.896;2024-01-27T09:56:25;26.50;;;4.90;;
5125;SDS011;63008;53.112;8.896;2024-01-27T09:58:28;19.10;;;4.77;;
5125;SDS011;63008;53.112;8.896;2024-01-27T10:00:33;25.30;;;5.17;;
5125;SDS011;63008;53.112;8.896;2024-01-27T10:02:38;15.87;;;5.47;;
5125;SDS011;63008;53.112;8.896;2024-01-27T10:04:40;23.00;;;5.60;;
5125;SDS011;63008;53.112;8.896;2024-01-27T10:06:42;12.57;;;4.37;;
5125;SDS011;63008;53.112;8.896;2024-01-27T10:08:47;29.23;;;5.70;;
5125;SDS011;63008;53.112;8.896;2024-01-27T10:10:54;19.33;;;5.63;;
5125;SDS011;63008;53.112;8.896;2024-01-27T10:12:58;24.87;;;5.77;;
5125;SDS011;63008;53.112;8.896;2024-01-27T10:15:02;23.27;;;5.73;;
5125;SDS011;63008;53.112;8.896;2024-01-27T10:17:03;20.03;;;5.03;;
5125;SDS011;63008;53.112;8.896;2024-01-27T10:19:04;23.03;;;6.23;;
5125;SDS011;63008;53.112;8.896;2024-01-27T10:21:15;18.13;;;4.90;;
5125;SDS011;63008;53.112;8.896;2024-01-27T10:23:17;16.97;;;5.43;;
5125;SDS011;63008;53.112;8.896;2024-01-27T10:25:18;12.00;;;4.90;;
5125;SDS011;63008;53.112;8.896;2024-01-27T10:27:19;16.90;;;6.30;;
5125;SDS011;63008;53.112;8.896;2024-01-27T10:29:19;17.87;;;5.73;;
5125;SDS011;63008;53.112;8.896;2024-01-27T10:31:25;25.17;;;5.87;;
5125;SDS011;63008;53.112;8.896;2024-01-27T10:33:30;19.87;;;6.23;;
5125;SDS011;63008;53.112;8.896;2024-01-27T10:35:32;15.00;;;5.40;;
5125;SDS011;63008;53.112;8.896;2024-01-27T10:37:33;23.73;;;6.57;;
5125;SDS011;63008;53.112;8.896;2024-01-27T10:39:35;18.90;;;5.47;;
5125;SDS011;63008;53.112;8.896;2024-01-27T10:41:36;19.30;;;6.83;;
5125;SDS011;63008;53.112;8.896;2024-01-27T10:43:39;20.17;;;6.20;;
5125;SDS011;63008;53.112;8.896;2024-01-27T10:45:41;13.30;;;5.10;;
5125;SDS011;63008;53.112;8.896;2024-01-27T10:47:42;14.47;;;5.70;;
5125;SDS011;63008;53.112;8.896;2024-01-27T10:49:44;20.23;;;6.33;;
5125;SDS011;63008;53.112;8.896;2024-01-27T10:51:54;17.73;;;6.17;;
5125;SDS011;63008;53.112;8.896;2024-01-27T10:53:59;19.73;;;6.73;;
5125;SDS011;63008;53.112;8.896;2024-01-27T10:56:02;22.00;;;6.03;;
5125;SDS011;63008;53.112;8.896;2024-01-27T10:58:07;15.90;;;6.27;;
5125;SDS011;63008;53.112;8.896;2024-01-27T11:00:08;14.77;;;5.53;;
5125;SDS011;63008;53.112;8.896;2024-01-27T11:02:11;14.93;;;4.20;;
5125;SDS011;63008;53.112;8.896;2024-01-27T11:04:13;23.23;;;6.30;;
5125;SDS011;63008;53.112;8.896;2024-01-27T11:06:15;16.57;;;6.40;;
5125;SDS011;63008;53.112;8.896;2024-01-27T11:08:19;21.83;;;6.40;;
5125;SDS011;63008;53.112;8.896;2024-01-27T11:10:20;21.87;;;6.93;;
5125;SDS011;63008;53.112;8.896;2024-01-27T11:12:23;17.53;;;6.57;;
5125;SDS011;63008;53.112;8.896;2024-01-27T11:14:25;16.43;;;7.07;;
5125;SDS011;63008;53.112;8.896;2024-01-27T11:16:26;26.77;;;8.30;;
5125;SDS011;63008;53.112;8.896;2024-01-27T11:18:29;17.63;;;7.30;;
5125;SDS011;63008;53.112;8.896;2024-01-27T11:20:30;20.10;;;6.33;;
5125;SDS011;63008;53.112;8.896;2024-01-27T11:22:32;23.03;;;6.73;;
5125;SDS011;63008;53.112;8.896;2024-01-27T11:24:33;23.57;;;6.70;;
5125;SDS011;63008;53.112;8.896;2024-01-27T11:26:34;16.17;;;5.90;;
5125;SDS011;63008;53.112;8.896;2024-01-27T11:28:36;25.07;;;6.80;;
5125;SDS011;63008;53.112;8.896;2024-01-27T11:30:37;28.73;;;7.53;;
5125;SDS011;63008;53.112;8.896;2024-01-27T11:32:40;21.40;;;7.50;;
5125;SDS011;63008;53.112;8.896;2024-01-27T11:34:42;17.83;;;6.00;;
5125;SDS011;63008;53.112;8.896;2024-01-27T11:36:45;17.17;;;6.57;;
5125;SDS011;63008;53.112;8.896;2024-01-27T11:38:46;17.00;;;6.47;;
5125;SDS011;63008;53.112;8.896;2024-01-27T11:40:47;17.73;;;6.60;;
5125;SDS011;63008;53.112;8.896;2024-01-27T11:42:53;17.20;;;6.00;;
5125;SDS011;63008;53.112;8.896;2024-01-27T11:44:56;22.43;;;6.70;;
5125;SDS011;63008;53.112;8.896;2024-01-27T11:46:57;11.90;;;6.10;;
5125;SDS011;63008;53.112;8.896;2024-01-27T11:48:58;19.77;;;7.00;;
5125;SDS011;63008;53.112;8.896;2024-01-27T11:51:05;23.77;;;6.97;;
5125;SDS011;63008;53.112;8.896;2024-01-27T11:53:08;25.20;;;6.50;;
5125;SDS011;63008;53.112;8.896;2024-01-27T11:55:10;26.73;;;6.57;;
5125;SDS011;63008;53.112;8.896;2024-01-27T11:57:11;18.90;;;6.20;;
5125;SDS011;63008;53.112;8.896;2024-01-27T11:59:12;19.40;;;5.53;;
5125;SDS011;63008;53.112;8.896;2024-01-27T12:01:13;19.13;;;6.70;;
5125;SDS011;63008;53.112;8.896;2024-01-27T12:03:15;12.40;;;5.70;;
5125;SDS011;63008;53.112;8.896;2024-01-27T12:05:16;18.53;;;5.47;;
5125;SDS011;63008;53.112;8.896;2024-01-27T12:07:17;24.80;;;5.40;;
5125;SDS011;63008;53.112;8.896;2024-01-27T12:09:21;18.03;;;5.53;;
5125;SDS011;63008;53.112;8.896;2024-01-27T12:11:23;19.23;;;4.83;;
5125;SDS011;63008;53.112;8.896;2024-01-27T12:13:25;12.43;;;5.97;;